createdAt,value
2022-10-05T00:00:12.749Z,76.80
2022-10-05T00:05:36.308Z,76.80
2022-10-05T00:10:43.819Z,76.60
2022-10-05T00:15:48.345Z,76.60
2022-10-05T00:20:51.887Z,77.30
2022-10-05T00:25:57.528Z,76.50
2022-10-05T00:31:01.410Z,76.40
2022-10-05T00:36:07.665Z,76.60
2022-10-05T00:41:41.275Z,76.50
2022-10-05T00:47:33.306Z,77.00
2022-10-05T00:53:15.707Z,76.60
2022-10-05T00:58:35.300Z,76.80
2022-10-05T01:04:00.612Z,76.90
2022-10-05T01:09:17.173Z,76.60
2022-10-05T01:14:34.870Z,76.50
2022-10-05T01:20:11.871Z,76.40
2022-10-05T01:25:24.283Z,76.60
2022-10-05T01:30:33.841Z,76.40
2022-10-05T01:36:11.341Z,76.70
2022-10-05T01:41:37.376Z,76.30
2022-10-05T01:47:27.863Z,76.20
2022-10-05T01:52:46.712Z,76.20
2022-10-05T01:58:11.397Z,76.10
2022-10-05T02:03:22.435Z,76.30
2022-10-05T02:08:35.306Z,75.00
2022-10-05T02:13:44.344Z,74.60
2022-10-05T02:18:57.651Z,73.80
2022-10-05T02:24:11.407Z,73.40
2022-10-05T02:29:19.123Z,73.30
2022-10-05T02:34:30.537Z,73.40
2022-10-05T02:40:20.196Z,73.20
2022-10-05T02:45:36.960Z,73.20
2022-10-05T02:51:01.622Z,73.30
2022-10-05T02:56:29.403Z,73.40
2022-10-05T03:01:51.992Z,73.40
2022-10-05T03:07:10.105Z,73.30
2022-10-05T03:12:25.606Z,73.20
2022-10-05T03:17:37.615Z,73.40
2022-10-05T03:22:51.267Z,73.60
2022-10-05T03:28:26.472Z,73.50
2022-10-05T03:33:49.080Z,73.50
2022-10-05T03:39:23.391Z,73.50
2022-10-05T03:44:55.569Z,73.80
2022-10-05T03:50:16.580Z,73.60
2022-10-05T03:55:26.545Z,73.50
2022-10-05T04:00:32.549Z,73.50
2022-10-05T04:05:59.485Z,73.80
2022-10-05T04:11:22.753Z,73.50
2022-10-05T04:16:35.384Z,73.50
2022-10-05T04:21:47.711Z,73.40
2022-10-05T04:26:56.062Z,73.40
2022-10-05T04:32:25.260Z,73.60
2022-10-05T04:37:36.515Z,73.40
2022-10-05T04:43:16.141Z,73.40
2022-10-05T04:48:45.185Z,73.30
2022-10-05T04:54:18.595Z,73.20
2022-10-05T04:59:45.442Z,73.10
2022-10-05T05:05:17.110Z,73.20
2022-10-05T05:10:48.854Z,73.40
2022-10-05T05:16:08.994Z,73.00
2022-10-05T05:22:01.028Z,72.90
2022-10-05T05:27:51.381Z,72.90
2022-10-05T05:33:19.736Z,73.30
2022-10-05T05:38:44.884Z,72.90
2022-10-05T05:44:28.216Z,73.00
2022-10-05T05:50:01.815Z,73.60
2022-10-05T05:55:34.606Z,74.20
2022-10-05T06:00:44.676Z,75.00
2022-10-05T06:06:02.020Z,74.60
2022-10-05T06:11:28.107Z,75.10
2022-10-05T06:16:41.241Z,75.20
2022-10-05T06:21:48.420Z,74.90
2022-10-05T06:27:09.515Z,74.70
2022-10-05T06:32:42.915Z,74.60
2022-10-05T06:38:02.997Z,74.70
2022-10-05T06:43:34.983Z,74.40
2022-10-05T06:49:29.773Z,74.30
2022-10-05T06:55:18.526Z,74.20
2022-10-05T07:00:33.302Z,74.10
2022-10-05T07:05:40.153Z,74.00
2022-10-05T07:11:05.928Z,74.10
2022-10-05T07:16:36.587Z,74.00
2022-10-05T07:21:54.336Z,73.60
2022-10-05T07:27:03.768Z,73.90
2022-10-05T07:32:29.095Z,74.20
2022-10-05T07:37:55.227Z,74.00
2022-10-05T07:43:14.913Z,74.30
2022-10-05T07:48:24.665Z,74.00
2022-10-05T07:53:52.656Z,73.70
2022-10-05T07:59:08.203Z,73.60
2022-10-05T08:04:19.950Z,73.20
2022-10-05T08:09:36.374Z,73.50
2022-10-05T08:14:53.299Z,73.30
2022-10-05T08:20:03.418Z,73.60
2022-10-05T08:25:18.249Z,74.70
2022-10-05T08:30:21.771Z,74.90
2022-10-05T08:35:34.500Z,75.00
2022-10-05T08:40:47.027Z,74.90
2022-10-05T08:45:50.724Z,75.20
2022-10-05T08:51:08.088Z,75.40
2022-10-05T08:56:22.284Z,75.00
2022-10-05T09:01:56.326Z,74.90
2022-10-05T09:07:10.124Z,75.00
2022-10-05T09:12:49.258Z,74.50
2022-10-05T09:18:30.750Z,74.40
2022-10-05T09:23:45.581Z,74.80
2022-10-05T09:29:30.078Z,74.70
2022-10-05T09:35:28.657Z,74.90
2022-10-05T09:41:17.330Z,74.90
2022-10-05T09:46:34.271Z,74.30
2022-10-05T09:52:06.487Z,74.30
2022-10-05T09:57:25.690Z,74.30
2022-10-05T10:02:39.084Z,74.20
2022-10-05T10:08:05.477Z,74.40
2022-10-05T10:13:35.399Z,74.00
2022-10-05T10:19:13.218Z,74.20
2022-10-05T10:24:41.586Z,74.00
2022-10-05T10:30:04.141Z,74.20
2022-10-05T10:35:20.148Z,73.90
2022-10-05T10:40:35.437Z,73.90
2022-10-05T10:46:08.146Z,73.70
2022-10-05T10:51:27.430Z,73.70
2022-10-05T10:57:00.458Z,74.00
2022-10-05T11:02:22.288Z,73.60
2022-10-05T11:07:41.411Z,73.60
2022-10-05T11:13:27.056Z,73.90
2022-10-05T11:18:30.922Z,73.40
2022-10-05T11:24:11.903Z,73.60
2022-10-05T11:29:27.289Z,73.60
2022-10-05T11:34:55.683Z,74.00
2022-10-05T11:40:46.270Z,73.00
2022-10-05T11:46:00.880Z,73.00
2022-10-05T11:51:41.816Z,73.30
2022-10-05T11:57:18.496Z,72.50
2022-10-05T12:02:50.140Z,71.70
2022-10-05T12:07:59.627Z,71.40
2022-10-05T12:13:23.195Z,71.50
2022-10-05T12:18:32.943Z,72.40
2022-10-05T12:23:39.545Z,72.00
2022-10-05T12:29:03.942Z,72.90
2022-10-05T12:34:18.414Z,72.80
2022-10-05T12:39:45.676Z,73.00
2022-10-05T12:45:11.200Z,73.30
2022-10-05T12:50:42.430Z,73.00
2022-10-05T12:55:56.210Z,73.30
2022-10-05T13:01:06.429Z,73.10
2022-10-05T13:06:46.229Z,73.10
2022-10-05T13:12:04.153Z,72.90
2022-10-05T13:17:27.161Z,71.80
2022-10-05T13:22:39.607Z,71.50
2022-10-05T13:28:18.718Z,72.40
2022-10-05T13:33:23.344Z,71.90
2022-10-05T13:38:34.771Z,71.10
2022-10-05T13:44:20.738Z,71.50
2022-10-05T13:49:29.672Z,71.00
2022-10-05T13:55:15.618Z,71.90
2022-10-05T14:00:27.045Z,71.20
2022-10-05T14:05:38.131Z,71.00
2022-10-05T14:10:50.034Z,71.10
2022-10-05T14:16:14.604Z,71.20
2022-10-05T14:21:50.138Z,71.20
2022-10-05T14:26:57.275Z,71.00
2022-10-05T14:32:23.338Z,71.10
2022-10-05T14:37:53.502Z,71.20
2022-10-05T14:43:21.421Z,71.40
2022-10-05T14:48:53.235Z,71.10
2022-10-05T14:54:15.483Z,72.20
2022-10-05T14:59:40.506Z,73.10
2022-10-05T15:05:04.319Z,73.40
2022-10-05T15:10:50.372Z,73.00
2022-10-05T15:16:05.188Z,72.70
2022-10-05T15:21:24.423Z,72.50
2022-10-05T15:26:54.867Z,72.30
2022-10-05T15:32:21.412Z,72.30
2022-10-05T15:37:43.773Z,72.50
2022-10-05T15:42:53.663Z,72.40
2022-10-05T15:48:25.461Z,72.00
2022-10-05T15:53:46.822Z,72.20
2022-10-05T15:58:59.749Z,72.00
2022-10-05T16:04:16.232Z,71.80
2022-10-05T16:09:46.187Z,71.80
2022-10-05T16:15:07.086Z,71.80
2022-10-05T16:20:29.258Z,71.70
2022-10-05T16:26:03.184Z,71.60
2022-10-05T16:31:37.799Z,71.50
2022-10-05T16:37:10.067Z,72.00
2022-10-05T16:42:47.232Z,71.50
2022-10-05T16:48:31.292Z,71.00
2022-10-05T16:53:43.118Z,71.40
2022-10-05T16:59:18.264Z,71.40
2022-10-05T17:04:49.412Z,71.50
2022-10-05T17:10:36.012Z,71.80
2022-10-05T17:16:09.967Z,71.30
2022-10-05T17:21:35.244Z,71.40
2022-10-05T17:26:56.879Z,71.20
2022-10-05T17:32:15.446Z,71.20
2022-10-05T17:37:35.711Z,71.70
2022-10-05T17:42:42.885Z,71.30
2022-10-05T17:48:09.905Z,71.30
2022-10-05T17:53:58.442Z,71.20
2022-10-05T17:59:13.269Z,71.20
2022-10-05T18:04:35.903Z,71.20
2022-10-05T18:10:00.534Z,71.20
2022-10-05T18:15:16.609Z,71.20
2022-10-05T18:20:28.115Z,71.30
2022-10-05T18:25:56.385Z,71.10
2022-10-05T18:31:32.496Z,71.00
2022-10-05T18:36:52.737Z,71.00
2022-10-05T18:42:31.593Z,71.00
2022-10-05T18:48:14.713Z,70.80
2022-10-05T18:53:48.355Z,70.70
2022-10-05T18:59:40.794Z,71.20
2022-10-05T19:05:09.166Z,70.90
2022-10-05T19:10:51.638Z,70.90
2022-10-05T19:16:20.049Z,70.80
2022-10-05T19:21:56.512Z,70.80
2022-10-05T19:27:19.032Z,70.70
2022-10-05T19:32:56.091Z,71.10
2022-10-05T19:38:29.956Z,70.80
2022-10-05T19:43:36.955Z,70.80
2022-10-05T19:48:45.943Z,70.60
2022-10-05T19:53:51.744Z,70.80
2022-10-05T19:58:59.900Z,70.70
2022-10-05T20:04:06.284Z,70.60
2022-10-05T20:09:21.707Z,70.90
2022-10-05T20:14:34.127Z,71.20
2022-10-05T20:20:11.700Z,70.50
2022-10-05T20:25:18.186Z,70.60
2022-10-05T20:30:32.863Z,70.50
2022-10-05T20:35:36.490Z,70.00
2022-10-05T20:40:40.825Z,70.50
2022-10-05T20:45:44.653Z,70.50
2022-10-05T20:50:48.384Z,70.50
2022-10-05T20:55:52.620Z,70.60
2022-10-05T21:01:30.666Z,70.60
2022-10-05T21:06:45.176Z,70.80
2022-10-05T21:11:57.228Z,70.40
2022-10-05T21:17:02.231Z,70.80
2022-10-05T21:22:10.112Z,70.60
2022-10-05T21:27:13.611Z,70.40
2022-10-05T21:32:17.128Z,70.40
2022-10-05T21:37:20.545Z,70.40
2022-10-05T21:42:25.135Z,70.30
2022-10-05T21:47:31.392Z,70.40
2022-10-05T21:52:36.332Z,70.30
2022-10-05T21:57:41.699Z,70.30
2022-10-05T22:02:47.109Z,70.30
2022-10-05T22:07:52.107Z,70.90
2022-10-05T22:13:00.918Z,70.20
2022-10-05T22:18:04.990Z,70.30
2022-10-05T22:23:08.608Z,70.30
2022-10-05T22:28:17.255Z,70.20
2022-10-05T22:33:21.886Z,70.20
2022-10-05T22:38:30.928Z,70.20
2022-10-05T22:43:36.505Z,70.20
2022-10-05T22:48:41.153Z,70.40
2022-10-05T22:53:45.289Z,70.20
2022-10-05T22:58:48.909Z,70.20
2022-10-05T23:03:52.430Z,70.40
2022-10-05T23:08:55.950Z,70.10
2022-10-05T23:14:00.801Z,70.20
2022-10-05T23:19:04.435Z,70.10
2022-10-05T23:24:08.253Z,70.40
2022-10-05T23:29:14.844Z,70.10
2022-10-05T23:34:20.923Z,70.50
2022-10-05T23:39:24.443Z,70.50
2022-10-05T23:44:27.966Z,70.10
2022-10-05T23:49:31.485Z,70.10
2022-10-05T23:54:34.902Z,70.00
2022-10-05T23:59:38.324Z,70.00
